sensor_id;sensor_type;location;lat;lon;timestamp;P1;durP1;ratioP1;P2;durP2;ratioP2
53293;SDS011;39181;53.440;5.644;2022-09-09T00:01:22;15.93;;;5.43;;
53293;SDS011;39181;53.440;5.644;2022-09-09T00:06:43;11.13;;;4.47;;
53293;SDS011;39181;53.440;5.644;2022-09-09T00:09:17;9.98;;;5.25;;
53293;SDS011;39181;53.440;5.644;2022-09-09T00:11:47;6.63;;;4.95;;
53293;SDS011;39181;53.440;5.644;2022-09-09T00:17:03;9.73;;;5.45;;
53293;SDS011;39181;53.440;5.644;2022-09-09T00:22:22;9.63;;;5.50;;
53293;SDS011;39181;53.440;5.644;2022-09-09T00:24:52;11.45;;;6.60;;
53293;SDS011;39181;53.440;5.644;2022-09-09T00:30:17;9.85;;;7.72;;
53293;SDS011;39181;53.440;5.644;2022-09-09T00:32:48;12.85;;;6.85;;
53293;SDS011;39181;53.440;5.644;2022-09-09T00:35:39;13.65;;;6.90;;
53293;SDS011;39181;53.440;5.644;2022-09-09T00:38:13;11.35;;;7.35;;
53293;SDS011;39181;53.440;5.644;2022-09-09T00:40:50;14.23;;;7.20;;
53293;SDS011;39181;53.440;5.644;2022-09-09T00:43:28;13.95;;;7.85;;
53293;SDS011;39181;53.440;5.644;2022-09-09T00:48:54;12.75;;;7.30;;
53293;SDS011;39181;53.440;5.644;2022-09-09T00:54:38;17.52;;;8.20;;
53293;SDS011;39181;53.440;5.644;2022-09-09T00:59:57;12.35;;;8.27;;
53293;SDS011;39181;53.440;5.644;2022-09-09T01:05:20;13.98;;;8.57;;
53293;SDS011;39181;53.440;5.644;2022-09-09T01:07:52;15.90;;;10.15;;
53293;SDS011;39181;53.440;5.644;2022-09-09T01:13:14;19.83;;;9.35;;
53293;SDS011;39181;53.440;5.644;2022-09-09T01:15:58;14.50;;;9.57;;
53293;SDS011;39181;53.440;5.644;2022-09-09T01:18:35;15.13;;;8.80;;
53293;SDS011;39181;53.440;5.644;2022-09-09T01:21:26;18.20;;;8.93;;
53293;SDS011;39181;53.440;5.644;2022-09-09T01:26:58;16.98;;;9.50;;
53293;SDS011;39181;53.440;5.644;2022-09-09T01:29:27;15.20;;;9.65;;
53293;SDS011;39181;53.440;5.644;2022-09-09T01:31:57;14.23;;;9.10;;
53293;SDS011;39181;53.440;5.644;2022-09-09T01:34:24;16.35;;;9.10;;
53293;SDS011;39181;53.440;5.644;2022-09-09T01:39:24;13.70;;;9.73;;
53293;SDS011;39181;53.440;5.644;2022-09-09T01:41:51;15.82;;;8.68;;
53293;SDS011;39181;53.440;5.644;2022-09-09T01:44:19;15.13;;;8.98;;
53293;SDS011;39181;53.440;5.644;2022-09-09T01:46:45;15.23;;;8.77;;
53293;SDS011;39181;53.440;5.644;2022-09-09T01:52:54;12.50;;;8.32;;
53293;SDS011;39181;53.440;5.644;2022-09-09T01:55:41;15.10;;;8.50;;
53293;SDS011;39181;53.440;5.644;2022-09-09T01:58:17;14.88;;;9.25;;
53293;SDS011;39181;53.440;5.644;2022-09-09T02:00:54;13.48;;;9.07;;
53293;SDS011;39181;53.440;5.644;2022-09-09T02:03:27;15.57;;;8.75;;
53293;SDS011;39181;53.440;5.644;2022-09-09T02:08:36;19.50;;;9.57;;
53293;SDS011;39181;53.440;5.644;2022-09-09T02:11:15;14.10;;;8.75;;
53293;SDS011;39181;53.440;5.644;2022-09-09T02:16:37;13.35;;;9.52;;
53293;SDS011;39181;53.440;5.644;2022-09-09T02:19:18;14.73;;;9.07;;
53293;SDS011;39181;53.440;5.644;2022-09-09T02:21:52;15.55;;;9.60;;
53293;SDS011;39181;53.440;5.644;2022-09-09T02:24:20;16.67;;;9.02;;
53293;SDS011;39181;53.440;5.644;2022-09-09T02:26:47;18.10;;;10.07;;
53293;SDS011;39181;53.440;5.644;2022-09-09T02:29:25;16.75;;;9.68;;
53293;SDS011;39181;53.440;5.644;2022-09-09T02:32:11;15.45;;;10.23;;
53293;SDS011;39181;53.440;5.644;2022-09-09T02:34:42;16.45;;;9.98;;
53293;SDS011;39181;53.440;5.644;2022-09-09T02:37:10;15.85;;;9.18;;
53293;SDS011;39181;53.440;5.644;2022-09-09T02:39:38;13.10;;;9.48;;
53293;SDS011;39181;53.440;5.644;2022-09-09T02:42:04;14.90;;;9.80;;
53293;SDS011;39181;53.440;5.644;2022-09-09T02:44:30;16.73;;;10.40;;
53293;SDS011;39181;53.440;5.644;2022-09-09T02:47:03;21.48;;;9.95;;
53293;SDS011;39181;53.440;5.644;2022-09-09T02:49:40;17.02;;;9.68;;
53293;SDS011;39181;53.440;5.644;2022-09-09T02:52:13;17.10;;;11.18;;
53293;SDS011;39181;53.440;5.644;2022-09-09T02:54:41;21.98;;;11.75;;
53293;SDS011;39181;53.440;5.644;2022-09-09T02:57:19;19.33;;;11.77;;
53293;SDS011;39181;53.440;5.644;2022-09-09T02:59:51;20.75;;;12.18;;
53293;SDS011;39181;53.440;5.644;2022-09-09T03:02:20;21.40;;;12.98;;
53293;SDS011;39181;53.440;5.644;2022-09-09T03:04:45;16.52;;;10.32;;
53293;SDS011;39181;53.440;5.644;2022-09-09T03:07:15;17.50;;;11.02;;
53293;SDS011;39181;53.440;5.644;2022-09-09T03:09:42;18.42;;;11.25;;
53293;SDS011;39181;53.440;5.644;2022-09-09T03:12:07;17.00;;;11.43;;
53293;SDS011;39181;53.440;5.644;2022-09-09T03:14:33;19.75;;;13.40;;
53293;SDS011;39181;53.440;5.644;2022-09-09T03:16:59;22.02;;;13.77;;
53293;SDS011;39181;53.440;5.644;2022-09-09T03:19:26;17.48;;;11.18;;
53293;SDS011;39181;53.440;5.644;2022-09-09T03:21:52;18.30;;;11.43;;
53293;SDS011;39181;53.440;5.644;2022-09-09T03:24:18;17.60;;;11.63;;
53293;SDS011;39181;53.440;5.644;2022-09-09T03:26:44;18.55;;;10.68;;
53293;SDS011;39181;53.440;5.644;2022-09-09T03:29:10;19.63;;;11.48;;
53293;SDS011;39181;53.440;5.644;2022-09-09T03:31:37;16.20;;;10.43;;
53293;SDS011;39181;53.440;5.644;2022-09-09T03:34:04;17.23;;;9.35;;
53293;SDS011;39181;53.440;5.644;2022-09-09T03:36:30;15.00;;;9.73;;
53293;SDS011;39181;53.440;5.644;2022-09-09T03:38:56;17.30;;;10.35;;
53293;SDS011;39181;53.440;5.644;2022-09-09T03:41:23;14.25;;;8.93;;
53293;SDS011;39181;53.440;5.644;2022-09-09T03:43:51;15.50;;;9.55;;
53293;SDS011;39181;53.440;5.644;2022-09-09T03:46:18;12.93;;;8.05;;
53293;SDS011;39181;53.440;5.644;2022-09-09T03:48:47;14.43;;;8.52;;
53293;SDS011;39181;53.440;5.644;2022-09-09T03:51:14;14.48;;;8.43;;
53293;SDS011;39181;53.440;5.644;2022-09-09T03:53:40;18.20;;;9.55;;
53293;SDS011;39181;53.440;5.644;2022-09-09T03:56:07;14.23;;;7.75;;
53293;SDS011;39181;53.440;5.644;2022-09-09T03:58:33;13.23;;;8.80;;
53293;SDS011;39181;53.440;5.644;2022-09-09T04:01:00;14.65;;;8.77;;
53293;SDS011;39181;53.440;5.644;2022-09-09T04:03:26;15.25;;;8.57;;
53293;SDS011;39181;53.440;5.644;2022-09-09T04:05:52;11.07;;;7.97;;
53293;SDS011;39181;53.440;5.644;2022-09-09T04:08:19;12.63;;;8.27;;
53293;SDS011;39181;53.440;5.644;2022-09-09T04:10:46;13.65;;;8.10;;
53293;SDS011;39181;53.440;5.644;2022-09-09T04:13:13;11.55;;;8.02;;
53293;SDS011;39181;53.440;5.644;2022-09-09T04:15:40;12.57;;;8.18;;
53293;SDS011;39181;53.440;5.644;2022-09-09T04:18:05;13.65;;;8.25;;
53293;SDS011;39181;53.440;5.644;2022-09-09T04:20:31;16.70;;;9.23;;
53293;SDS011;39181;53.440;5.644;2022-09-09T04:22:58;17.17;;;8.98;;
53293;SDS011;39181;53.440;5.644;2022-09-09T04:25:23;15.95;;;8.40;;
53293;SDS011;39181;53.440;5.644;2022-09-09T04:27:58;18.23;;;8.55;;
53293;SDS011;39181;53.440;5.644;2022-09-09T04:30:24;14.20;;;8.80;;
53293;SDS011;39181;53.440;5.644;2022-09-09T04:32:50;16.92;;;8.25;;
53293;SDS011;39181;53.440;5.644;2022-09-09T04:35:15;19.08;;;8.05;;
53293;SDS011;39181;53.440;5.644;2022-09-09T04:37:41;13.60;;;8.48;;
53293;SDS011;39181;53.440;5.644;2022-09-09T04:40:07;15.90;;;9.52;;
53293;SDS011;39181;53.440;5.644;2022-09-09T04:42:38;13.73;;;8.48;;
53293;SDS011;39181;53.440;5.644;2022-09-09T04:45:04;13.77;;;9.55;;
53293;SDS011;39181;53.440;5.644;2022-09-09T04:47:31;15.23;;;10.40;;
53293;SDS011;39181;53.440;5.644;2022-09-09T04:49:57;17.73;;;10.63;;
53293;SDS011;39181;53.440;5.644;2022-09-09T04:52:23;14.40;;;10.73;;
53293;SDS011;39181;53.440;5.644;2022-09-09T04:54:48;18.92;;;10.70;;
53293;SDS011;39181;53.440;5.644;2022-09-09T04:57:14;14.80;;;10.75;;
53293;SDS011;39181;53.440;5.644;2022-09-09T04:59:40;15.10;;;10.18;;
53293;SDS011;39181;53.440;5.644;2022-09-09T05:02:05;19.83;;;11.35;;
53293;SDS011;39181;53.440;5.644;2022-09-09T05:04:31;17.67;;;11.02;;
53293;SDS011;39181;53.440;5.644;2022-09-09T05:06:58;20.48;;;11.88;;
53293;SDS011;39181;53.440;5.644;2022-09-09T05:09:24;16.70;;;10.82;;
53293;SDS011;39181;53.440;5.644;2022-09-09T05:11:49;15.82;;;10.52;;
53293;SDS011;39181;53.440;5.644;2022-09-09T05:14:15;17.77;;;11.13;;
53293;SDS011;39181;53.440;5.644;2022-09-09T05:16:41;17.08;;;10.00;;
53293;SDS011;39181;53.440;5.644;2022-09-09T05:19:09;15.15;;;9.55;;
53293;SDS011;39181;53.440;5.644;2022-09-09T05:21:35;16.55;;;9.77;;
53293;SDS011;39181;53.440;5.644;2022-09-09T05:24:01;17.08;;;9.00;;
53293;SDS011;39181;53.440;5.644;2022-09-09T05:26:26;16.10;;;9.23;;
53293;SDS011;39181;53.440;5.644;2022-09-09T05:28:54;14.82;;;10.23;;
53293;SDS011;39181;53.440;5.644;2022-09-09T05:31:20;13.73;;;9.75;;
53293;SDS011;39181;53.440;5.644;2022-09-09T05:33:46;13.63;;;8.82;;
53293;SDS011;39181;53.440;5.644;2022-09-09T05:36:16;16.58;;;9.50;;
53293;SDS011;39181;53.440;5.644;2022-09-09T05:38:43;13.35;;;7.75;;
53293;SDS011;39181;53.440;5.644;2022-09-09T05:41:10;14.63;;;8.77;;
53293;SDS011;39181;53.440;5.644;2022-09-09T05:43:37;11.70;;;7.75;;
53293;SDS011;39181;53.440;5.644;2022-09-09T05:46:19;14.35;;;8.45;;
53293;SDS011;39181;53.440;5.644;2022-09-09T05:48:47;13.40;;;8.20;;
53293;SDS011;39181;53.440;5.644;2022-09-09T05:51:16;12.07;;;8.25;;
53293;SDS011;39181;53.440;5.644;2022-09-09T05:53:43;11.55;;;8.20;;
53293;SDS011;39181;53.440;5.644;2022-09-09T05:56:13;13.38;;;8.18;;
53293;SDS011;39181;53.440;5.644;2022-09-09T05:58:42;12.15;;;8.13;;
53293;SDS011;39181;53.440;5.644;2022-09-09T06:01:22;13.63;;;7.18;;
53293;SDS011;39181;53.440;5.644;2022-09-09T06:03:49;11.50;;;7.32;;
53293;SDS011;39181;53.440;5.644;2022-09-09T06:06:18;10.73;;;7.55;;
53293;SDS011;39181;53.440;5.644;2022-09-09T06:08:56;12.00;;;7.45;;
53293;SDS011;39181;53.440;5.644;2022-09-09T06:11:26;13.00;;;7.03;;
53293;SDS011;39181;53.440;5.644;2022-09-09T06:13:57;11.88;;;7.55;;
53293;SDS011;39181;53.440;5.644;2022-09-09T06:16:23;12.60;;;6.40;;
53293;SDS011;39181;53.440;5.644;2022-09-09T06:18:50;9.98;;;6.40;;
53293;SDS011;39181;53.440;5.644;2022-09-09T06:21:37;12.30;;;7.25;;
53293;SDS011;39181;53.440;5.644;2022-09-09T06:24:02;10.23;;;6.88;;
53293;SDS011;39181;53.440;5.644;2022-09-09T06:26:32;8.48;;;6.15;;
53293;SDS011;39181;53.440;5.644;2022-09-09T06:28:59;10.75;;;6.55;;
53293;SDS011;39181;53.440;5.644;2022-09-09T06:31:27;13.18;;;6.53;;
53293;SDS011;39181;53.440;5.644;2022-09-09T06:33:58;9.48;;;6.70;;
53293;SDS011;39181;53.440;5.644;2022-09-09T06:36:28;13.23;;;6.93;;
53293;SDS011;39181;53.440;5.644;2022-09-09T06:38:56;10.95;;;6.63;;
53293;SDS011;39181;53.440;5.644;2022-09-09T06:41:22;11.98;;;6.82;;
53293;SDS011;39181;53.440;5.644;2022-09-09T06:43:51;10.35;;;7.32;;
53293;SDS011;39181;53.440;5.644;2022-09-09T06:46:20;15.60;;;8.38;;
53293;SDS011;39181;53.440;5.644;2022-09-09T06:48:48;11.37;;;7.43;;
53293;SDS011;39181;53.440;5.644;2022-09-09T06:51:18;10.10;;;7.50;;
53293;SDS011;39181;53.440;5.644;2022-09-09T06:53:46;13.00;;;7.22;;
53293;SDS011;39181;53.440;5.644;2022-09-09T06:56:28;13.50;;;7.35;;
53293;SDS011;39181;53.440;5.644;2022-09-09T06:58:59;14.13;;;7.70;;
53293;SDS011;39181;53.440;5.644;2022-09-09T07:01:32;11.82;;;7.82;;
53293;SDS011;39181;53.440;5.644;2022-09-09T07:04:00;15.77;;;8.23;;
53293;SDS011;39181;53.440;5.644;2022-09-09T07:06:28;10.80;;;7.45;;
53293;SDS011;39181;53.440;5.644;2022-09-09T07:08:59;13.32;;;7.45;;
53293;SDS011;39181;53.440;5.644;2022-09-09T07:11:30;9.23;;;6.55;;
53293;SDS011;39181;53.440;5.644;2022-09-09T07:14:02;11.07;;;7.68;;
53293;SDS011;39181;53.440;5.644;2022-09-09T07:16:28;9.40;;;7.35;;
53293;SDS011;39181;53.440;5.644;2022-09-09T07:18:54;10.68;;;7.63;;
53293;SDS011;39181;53.440;5.644;2022-09-09T07:21:23;11.57;;;8.15;;
53293;SDS011;39181;53.440;5.644;2022-09-09T07:23:51;13.05;;;7.65;;
53293;SDS011;39181;53.440;5.644;2022-09-09T07:26:18;14.73;;;7.70;;
53293;SDS011;39181;53.440;5.644;2022-09-09T07:28:45;9.23;;;7.57;;
53293;SDS011;39181;53.440;5.644;2022-09-09T07:31:15;11.82;;;7.57;;
53293;SDS011;39181;53.440;5.644;2022-09-09T07:33:48;13.82;;;7.43;;
53293;SDS011;39181;53.440;5.644;2022-09-09T07:36:15;11.60;;;7.88;;
53293;SDS011;39181;53.440;5.644;2022-09-09T07:38:48;10.40;;;6.65;;
53293;SDS011;39181;53.440;5.644;2022-09-09T07:41:20;13.18;;;7.60;;
53293;SDS011;39181;53.440;5.644;2022-09-09T07:43:48;11.43;;;6.75;;
53293;SDS011;39181;53.440;5.644;2022-09-09T07:46:15;10.52;;;6.47;;
53293;SDS011;39181;53.440;5.644;2022-09-09T07:48:46;10.05;;;6.10;;
53293;SDS011;39181;53.440;5.644;2022-09-09T07:51:16;10.35;;;6.25;;
53293;SDS011;39181;53.440;5.644;2022-09-09T07:53:45;10.20;;;6.90;;
53293;SDS011;39181;53.440;5.644;2022-09-09T07:56:12;9.73;;;7.25;;
53293;SDS011;39181;53.440;5.644;2022-09-09T07:58:41;10.07;;;6.50;;
53293;SDS011;39181;53.440;5.644;2022-09-09T08:01:10;13.38;;;6.60;;
53293;SDS011;39181;53.440;5.644;2022-09-09T08:03:38;9.35;;;6.88;;
53293;SDS011;39181;53.440;5.644;2022-09-09T08:06:05;10.70;;;6.70;;
53293;SDS011;39181;53.440;5.644;2022-09-09T08:08:33;9.93;;;6.70;;
53293;SDS011;39181;53.440;5.644;2022-09-09T08:11:06;9.23;;;5.55;;
53293;SDS011;39181;53.440;5.644;2022-09-09T08:13:37;8.23;;;5.65;;
53293;SDS011;39181;53.440;5.644;2022-09-09T08:16:04;7.50;;;4.97;;
53293;SDS011;39181;53.440;5.644;2022-09-09T08:18:40;9.10;;;5.22;;
53293;SDS011;39181;53.440;5.644;2022-09-09T08:21:08;7.80;;;4.88;;
53293;SDS011;39181;53.440;5.644;2022-09-09T08:23:39;9.38;;;4.72;;
53293;SDS011;39181;53.440;5.644;2022-09-09T08:26:13;8.35;;;4.57;;
53293;SDS011;39181;53.440;5.644;2022-09-09T08:28:41;8.10;;;4.75;;
53293;SDS011;39181;53.440;5.644;2022-09-09T08:31:14;8.75;;;4.55;;
53293;SDS011;39181;53.440;5.644;2022-09-09T08:33:42;6.45;;;4.43;;
53293;SDS011;39181;53.440;5.644;2022-09-09T08:36:11;9.38;;;4.38;;
53293;SDS011;39181;53.440;5.644;2022-09-09T08:38:40;8.32;;;4.85;;
53293;SDS011;39181;53.440;5.644;2022-09-09T08:44:10;7.65;;;4.05;;
53293;SDS011;39181;53.440;5.644;2022-09-09T08:47:18;7.85;;;4.95;;
53293;SDS011;39181;53.440;5.644;2022-09-09T08:52:51;11.57;;;4.88;;
53293;SDS011;39181;53.440;5.644;2022-09-09T09:07:02;4.70;;;3.67;;
53293;SDS011;39181;53.440;5.644;2022-09-09T09:12:45;8.30;;;4.70;;
53293;SDS011;39181;53.440;5.644;2022-09-09T09:15:23;6.13;;;3.60;;
53293;SDS011;39181;53.440;5.644;2022-09-09T09:17:51;6.68;;;2.92;;
53293;SDS011;39181;53.440;5.644;2022-09-09T09:20:18;5.22;;;3.63;;
53293;SDS011;39181;53.440;5.644;2022-09-09T09:22:57;8.55;;;4.03;;
53293;SDS011;39181;53.440;5.644;2022-09-09T09:25:27;11.88;;;3.85;;
53293;SDS011;39181;53.440;5.644;2022-09-09T09:28:17;6.68;;;4.05;;
53293;SDS011;39181;53.440;5.644;2022-09-09T09:31:03;9.95;;;3.47;;
53293;SDS011;39181;53.440;5.644;2022-09-09T09:33:44;6.88;;;3.10;;
53293;SDS011;39181;53.440;5.644;2022-09-09T09:36:14;10.30;;;2.95;;
53293;SDS011;39181;53.440;5.644;2022-09-09T09:38:51;8.73;;;3.22;;
53293;SDS011;39181;53.440;5.644;2022-09-09T09:44:00;7.57;;;3.03;;
53293;SDS011;39181;53.440;5.644;2022-09-09T09:46:26;7.60;;;2.72;;
53293;SDS011;39181;53.440;5.644;2022-09-09T09:49:05;5.90;;;2.60;;
53293;SDS011;39181;53.440;5.644;2022-09-09T09:51:34;9.90;;;3.25;;
53293;SDS011;39181;53.440;5.644;2022-09-09T09:56:38;5.45;;;2.50;;
53293;SDS011;39181;53.440;5.644;2022-09-09T09:59:05;6.78;;;3.20;;
53293;SDS011;39181;53.440;5.644;2022-09-09T10:01:53;6.80;;;2.95;;
53293;SDS011;39181;53.440;5.644;2022-09-09T10:04:22;6.18;;;2.88;;
53293;SDS011;39181;53.440;5.644;2022-09-09T10:06:48;6.88;;;2.72;;
53293;SDS011;39181;53.440;5.644;2022-09-09T10:09:22;7.15;;;2.55;;
53293;SDS011;39181;53.440;5.644;2022-09-09T10:12:04;8.00;;;2.50;;
53293;SDS011;39181;53.440;5.644;2022-09-09T10:14:40;5.50;;;2.22;;
53293;SDS011;39181;53.440;5.644;2022-09-09T10:20:27;9.52;;;2.50;;
53293;SDS011;39181;53.440;5.644;2022-09-09T10:23:35;10.18;;;2.30;;
53293;SDS011;39181;53.440;5.644;2022-09-09T10:32:13;8.13;;;2.15;;
53293;SDS011;39181;53.440;5.644;2022-09-09T10:37:50;6.90;;;2.00;;
53293;SDS011;39181;53.440;5.644;2022-09-09T10:46:03;9.63;;;2.28;;
53293;SDS011;39181;53.440;5.644;2022-09-09T10:51:48;5.05;;;1.58;;
53293;SDS011;39181;53.440;5.644;2022-09-09T10:54:29;6.28;;;2.42;;
53293;SDS011;39181;53.440;5.644;2022-09-09T10:57:08;10.70;;;2.22;;
53293;SDS011;39181;53.440;5.644;2022-09-09T10:59:42;8.65;;;1.60;;
53293;SDS011;39181;53.440;5.644;2022-09-09T11:02:28;4.63;;;1.38;;
53293;SDS011;39181;53.440;5.644;2022-09-09T11:04:58;5.45;;;1.75;;
53293;SDS011;39181;53.440;5.644;2022-09-09T11:07:51;5.60;;;1.42;;
53293;SDS011;39181;53.440;5.644;2022-09-09T11:10:29;12.48;;;1.60;;
53293;SDS011;39181;53.440;5.644;2022-09-09T11:16:20;6.63;;;2.15;;
53293;SDS011;39181;53.440;5.644;2022-09-09T11:18:50;5.43;;;1.73;;
53293;SDS011;39181;53.440;5.644;2022-09-09T11:21:26;7.53;;;1.90;;
53293;SDS011;39181;53.440;5.644;2022-09-09T11:23:57;7.95;;;1.42;;
53293;SDS011;39181;53.440;5.644;2022-09-09T11:26:39;5.35;;;1.52;;
53293;SDS011;39181;53.440;5.644;2022-09-09T11:29:25;6.20;;;1.75;;
53293;SDS011;39181;53.440;5.644;2022-09-09T11:37:16;6.70;;;1.60;;
53293;SDS011;39181;53.440;5.644;2022-09-09T11:40:14;7.10;;;1.30;;
53293;SDS011;39181;53.440;5.644;2022-09-09T11:42:44;7.15;;;1.63;;
53293;SDS011;39181;53.440;5.644;2022-09-09T11:45:24;5.57;;;1.48;;
53293;SDS011;39181;53.440;5.644;2022-09-09T11:47:54;4.93;;;1.27;;
53293;SDS011;39181;53.440;5.644;2022-09-09T11:52:50;5.03;;;1.60;;
53293;SDS011;39181;53.440;5.644;2022-09-09T11:55:26;8.90;;;2.08;;
53293;SDS011;39181;53.440;5.644;2022-09-09T11:58:02;7.80;;;1.40;;
53293;SDS011;39181;53.440;5.644;2022-09-09T12:00:44;8.18;;;1.60;;
53293;SDS011;39181;53.440;5.644;2022-09-09T12:06:15;3.58;;;1.10;;
53293;SDS011;39181;53.440;5.644;2022-09-09T12:09:05;1.95;;;0.68;;
53293;SDS011;39181;53.440;5.644;2022-09-09T12:11:41;5.95;;;1.33;;
53293;SDS011;39181;53.440;5.644;2022-09-09T12:14:18;7.53;;;0.73;;
53293;SDS011;39181;53.440;5.644;2022-09-09T12:16:46;2.83;;;0.88;;
53293;SDS011;39181;53.440;5.644;2022-09-09T12:19:16;6.90;;;1.23;;
53293;SDS011;39181;53.440;5.644;2022-09-09T12:24:37;6.50;;;1.10;;
53293;SDS011;39181;53.440;5.644;2022-09-09T12:30:00;5.00;;;1.35;;
53293;SDS011;39181;53.440;5.644;2022-09-09T12:32:35;4.15;;;1.80;;
53293;SDS011;39181;53.440;5.644;2022-09-09T12:35:04;2.92;;;1.20;;
53293;SDS011;39181;53.440;5.644;2022-09-09T12:37:51;8.05;;;1.40;;
53293;SDS011;39181;53.440;5.644;2022-09-09T12:40:25;3.65;;;1.10;;
53293;SDS011;39181;53.440;5.644;2022-09-09T12:43:00;4.88;;;1.33;;
53293;SDS011;39181;53.440;5.644;2022-09-09T12:45:31;6.65;;;1.60;;
53293;SDS011;39181;53.440;5.644;2022-09-09T12:51:03;5.65;;;1.58;;
53293;SDS011;39181;53.440;5.644;2022-09-09T12:53:23;6.83;;;1.47;;
53293;SDS011;39181;53.440;5.644;2022-09-09T12:56:01;5.18;;;1.33;;
53293;SDS011;39181;53.440;5.644;2022-09-09T12:58:29;4.30;;;1.23;;
53293;SDS011;39181;53.440;5.644;2022-09-09T13:00:58;7.70;;;1.10;;
53293;SDS011;39181;53.440;5.644;2022-09-09T13:03:26;7.53;;;1.50;;
53293;SDS011;39181;53.440;5.644;2022-09-09T13:05:52;6.47;;;1.60;;
53293;SDS011;39181;53.440;5.644;2022-09-09T13:08:19;7.05;;;1.50;;
53293;SDS011;39181;53.440;5.644;2022-09-09T13:10:53;6.68;;;1.38;;
53293;SDS011;39181;53.440;5.644;2022-09-09T13:13:24;8.07;;;1.98;;
53293;SDS011;39181;53.440;5.644;2022-09-09T13:16:02;8.02;;;1.40;;
53293;SDS011;39181;53.440;5.644;2022-09-09T13:18:33;5.10;;;1.50;;
53293;SDS011;39181;53.440;5.644;2022-09-09T13:21:00;6.68;;;1.95;;
53293;SDS011;39181;53.440;5.644;2022-09-09T13:23:27;4.82;;;1.30;;
53293;SDS011;39181;53.440;5.644;2022-09-09T13:25:58;7.03;;;1.50;;
53293;SDS011;39181;53.440;5.644;2022-09-09T13:28:26;4.43;;;1.00;;
53293;SDS011;39181;53.440;5.644;2022-09-09T13:30:57;4.22;;;1.23;;
53293;SDS011;39181;53.440;5.644;2022-09-09T13:33:29;4.22;;;1.08;;
53293;SDS011;39181;53.440;5.644;2022-09-09T13:35:58;5.75;;;1.20;;
53293;SDS011;39181;53.440;5.644;2022-09-09T13:38:28;5.72;;;1.17;;
53293;SDS011;39181;53.440;5.644;2022-09-09T13:41:00;3.25;;;1.08;;
53293;SDS011;39181;53.440;5.644;2022-09-09T13:43:43;4.72;;;1.70;;
53293;SDS011;39181;53.440;5.644;2022-09-09T13:48:59;6.53;;;1.33;;
53293;SDS011;39181;53.440;5.644;2022-09-09T13:51:34;5.05;;;1.33;;
53293;SDS011;39181;53.440;5.644;2022-09-09T13:54:04;4.63;;;1.20;;
53293;SDS011;39181;53.440;5.644;2022-09-09T13:56:31;5.00;;;1.27;;
53293;SDS011;39181;53.440;5.644;2022-09-09T13:58:58;5.85;;;1.40;;
53293;SDS011;39181;53.440;5.644;2022-09-09T14:01:23;5.38;;;1.17;;
53293;SDS011;39181;53.440;5.644;2022-09-09T14:03:49;6.10;;;1.35;;
53293;SDS011;39181;53.440;5.644;2022-09-09T14:06:15;4.80;;;1.00;;
53293;SDS011;39181;53.440;5.644;2022-09-09T14:08:41;7.70;;;1.90;;
53293;SDS011;39181;53.440;5.644;2022-09-09T14:11:08;3.70;;;0.90;;
53293;SDS011;39181;53.440;5.644;2022-09-09T14:13:37;7.00;;;1.45;;
53293;SDS011;39181;53.440;5.644;2022-09-09T14:16:02;6.75;;;1.20;;
53293;SDS011;39181;53.440;5.644;2022-09-09T14:18:28;9.15;;;1.45;;
53293;SDS011;39181;53.440;5.644;2022-09-09T14:20:54;6.30;;;1.45;;
53293;SDS011;39181;53.440;5.644;2022-09-09T14:23:19;6.80;;;1.02;;
53293;SDS011;39181;53.440;5.644;2022-09-09T14:25:46;1.70;;;0.70;;
53293;SDS011;39181;53.440;5.644;2022-09-09T14:28:12;2.83;;;1.00;;
53293;SDS011;39181;53.440;5.644;2022-09-09T14:30:39;4.55;;;0.85;;
53293;SDS011;39181;53.440;5.644;2022-09-09T14:33:06;3.83;;;1.30;;
53293;SDS011;39181;53.440;5.644;2022-09-09T14:35:33;3.65;;;0.75;;
53293;SDS011;39181;53.440;5.644;2022-09-09T14:37:59;4.75;;;1.20;;
53293;SDS011;39181;53.440;5.644;2022-09-09T14:40:26;3.08;;;0.93;;
53293;SDS011;39181;53.440;5.644;2022-09-09T14:42:52;4.35;;;1.10;;
53293;SDS011;39181;53.440;5.644;2022-09-09T14:45:18;5.10;;;1.17;;
53293;SDS011;39181;53.440;5.644;2022-09-09T14:47:44;3.88;;;1.02;;
53293;SDS011;39181;53.440;5.644;2022-09-09T14:50:10;6.95;;;1.20;;
53293;SDS011;39181;53.440;5.644;2022-09-09T14:52:37;5.03;;;1.42;;
53293;SDS011;39181;53.440;5.644;2022-09-09T14:55:03;5.45;;;1.63;;
53293;SDS011;39181;53.440;5.644;2022-09-09T14:57:29;2.25;;;0.73;;
53293;SDS011;39181;53.440;5.644;2022-09-09T14:59:55;2.42;;;0.68;;
53293;SDS011;39181;53.440;5.644;2022-09-09T15:02:21;3.30;;;0.65;;
53293;SDS011;39181;53.440;5.644;2022-09-09T15:04:47;2.55;;;0.65;;
53293;SDS011;39181;53.440;5.644;2022-09-09T15:07:14;1.90;;;0.73;;
53293;SDS011;39181;53.440;5.644;2022-09-09T15:09:41;2.63;;;0.57;;
53293;SDS011;39181;53.440;5.644;2022-09-09T15:12:07;3.22;;;0.85;;
53293;SDS011;39181;53.440;5.644;2022-09-09T15:14:32;2.83;;;0.90;;
53293;SDS011;39181;53.440;5.644;2022-09-09T15:16:59;3.22;;;1.02;;
53293;SDS011;39181;53.440;5.644;2022-09-09T15:19:24;3.60;;;1.02;;
53293;SDS011;39181;53.440;5.644;2022-09-09T15:21:50;3.83;;;1.08;;
53293;SDS011;39181;53.440;5.644;2022-09-09T15:24:16;3.22;;;0.90;;
53293;SDS011;39181;53.440;5.644;2022-09-09T15:26:42;3.88;;;0.82;;
53293;SDS011;39181;53.440;5.644;2022-09-09T15:29:07;3.25;;;1.02;;
53293;SDS011;39181;53.440;5.644;2022-09-09T15:31:33;2.45;;;1.15;;
53293;SDS011;39181;53.440;5.644;2022-09-09T15:34:00;3.58;;;0.52;;
53293;SDS011;39181;53.440;5.644;2022-09-09T15:36:29;21.40;;;1.88;;
53293;SDS011;39181;53.440;5.644;2022-09-09T15:38:54;35.33;;;2.95;;
53293;SDS011;39181;53.440;5.644;2022-09-09T15:41:21;15.65;;;2.88;;
53293;SDS011;39181;53.440;5.644;2022-09-09T15:43:48;26.85;;;2.78;;
53293;SDS011;39181;53.440;5.644;2022-09-09T15:46:23;20.80;;;3.30;;
53293;SDS011;39181;53.440;5.644;2022-09-09T15:48:49;13.80;;;1.90;;
53293;SDS011;39181;53.440;5.644;2022-09-09T15:51:16;6.38;;;1.25;;
53293;SDS011;39181;53.440;5.644;2022-09-09T15:53:41;6.18;;;1.23;;
53293;SDS011;39181;53.440;5.644;2022-09-09T15:56:08;2.67;;;1.30;;
53293;SDS011;39181;53.440;5.644;2022-09-09T15:58:34;2.55;;;1.20;;
53293;SDS011;39181;53.440;5.644;2022-09-09T16:01:07;6.25;;;1.40;;
53293;SDS011;39181;53.440;5.644;2022-09-09T16:03:37;6.93;;;1.70;;
53293;SDS011;39181;53.440;5.644;2022-09-09T16:06:06;3.95;;;1.30;;
53293;SDS011;39181;53.440;5.644;2022-09-09T16:08:36;5.80;;;1.52;;
53293;SDS011;39181;53.440;5.644;2022-09-09T16:11:07;4.43;;;1.40;;
53293;SDS011;39181;53.440;5.644;2022-09-09T16:13:35;1.90;;;1.13;;
53293;SDS011;39181;53.440;5.644;2022-09-09T16:16:01;2.13;;;1.00;;
53293;SDS011;39181;53.440;5.644;2022-09-09T16:19:12;2.13;;;0.90;;
53293;SDS011;39181;53.440;5.644;2022-09-09T16:21:23;2.60;;;0.80;;
53293;SDS011;39181;53.440;5.644;2022-09-09T16:23:51;4.15;;;1.00;;
53293;SDS011;39181;53.440;5.644;2022-09-09T16:26:18;3.72;;;1.10;;
53293;SDS011;39181;53.440;5.644;2022-09-09T16:28:44;6.53;;;1.05;;
53293;SDS011;39181;53.440;5.644;2022-09-09T16:31:15;4.82;;;1.20;;
53293;SDS011;39181;53.440;5.644;2022-09-09T16:36:13;3.53;;;0.98;;
53293;SDS011;39181;53.440;5.644;2022-09-09T16:38:56;2.58;;;0.95;;
53293;SDS011;39181;53.440;5.644;2022-09-09T16:41:24;3.03;;;1.13;;
53293;SDS011;39181;53.440;5.644;2022-09-09T16:43:55;3.05;;;1.70;;
53293;SDS011;39181;53.440;5.644;2022-09-09T16:46:23;3.97;;;1.63;;
53293;SDS011;39181;53.440;5.644;2022-09-09T16:48:49;2.35;;;1.70;;
53293;SDS011;39181;53.440;5.644;2022-09-09T16:51:21;6.05;;;1.80;;
53293;SDS011;39181;53.440;5.644;2022-09-09T16:53:50;6.90;;;2.20;;
53293;SDS011;39181;53.440;5.644;2022-09-09T16:56:18;6.22;;;2.28;;